Time;durP1;ratioP1;P1;durP2;ratioP2;P2;SDS_P1;SDS_P2;PMS_P1;PMS_P2;Temp;Humidity;BMP_temperature;BMP_pressure;BME280_temperature;BME280_humidity;BME280_pressure;Samples;Min_cycle;Max_cycle;Signal;HPM_P1;HPM_P2
2021/09/20 00:00:11;;;;;;;3.97;2.80;;;15.00;93.00;;;;;;4992983;28;20031;-73
2021/09/20 00:02:37;;;;;;;5.45;2.83;;;15.00;93.00;;;;;;4993723;28;20026;-73
2021/09/20 00:05:06;;;;;;;7.55;2.47;;;14.90;93.00;;;;;;4992832;28;20031;-71
2021/09/20 00:07:32;;;;;;;5.57;2.72;;;14.90;92.90;;;;;;4992897;28;20046;-73
2021/09/20 00:09:58;;;;;;;5.40;2.80;;;14.90;92.90;;;;;;4992934;28;20031;-72
2021/09/20 00:12:23;;;;;;;4.65;2.88;;;14.90;92.90;;;;;;4993007;28;20038;-72
2021/09/20 00:14:49;;;;;;;6.07;2.90;;;14.90;93.00;;;;;;4993197;28;20037;-71
2021/09/20 00:17:14;;;;;;;4.32;2.67;;;14.90;92.90;;;;;;4992934;28;20045;-71
2021/09/20 00:19:40;;;;;;;6.00;2.38;;;14.90;93.00;;;;;;4992659;28;20044;-74
2021/09/20 00:22:06;;;;;;;4.57;3.00;;;14.90;93.10;;;;;;4992613;28;20038;-71
2021/09/20 00:24:32;;;;;;;7.47;3.00;;;14.90;93.10;;;;;;4992581;28;20097;-71
2021/09/20 00:26:57;;;;;;;4.90;2.90;;;14.90;93.20;;;;;;4993058;28;20385;-72
2021/09/20 00:29:23;;;;;;;8.52;2.83;;;14.90;93.10;;;;;;4992371;28;20496;-73
2021/09/20 00:31:48;;;;;;;5.35;2.53;;;14.90;93.30;;;;;;4991391;28;20034;-71
2021/09/20 00:34:14;;;;;;;4.80;2.95;;;14.90;93.20;;;;;;4992446;28;20083;-72
2021/09/20 00:36:39;;;;;;;5.57;2.85;;;14.90;93.20;;;;;;4992065;28;20065;-72
2021/09/20 00:39:05;;;;;;;4.10;2.67;;;14.90;93.20;;;;;;4991322;28;20084;-73
2021/09/20 00:41:31;;;;;;;4.25;2.85;;;14.90;93.30;;;;;;4993111;28;20042;-71
2021/09/20 00:43:56;;;;;;;5.78;2.90;;;14.90;93.40;;;;;;4992366;28;20030;-73
2021/09/20 00:46:22;;;;;;;4.15;2.33;;;14.80;93.40;;;;;;4992441;28;20346;-72
2021/09/20 00:48:48;;;;;;;5.72;2.83;;;14.90;93.30;;;;;;4992483;28;20054;-72
2021/09/20 00:51:14;;;;;;;5.82;2.80;;;14.90;93.30;;;;;;4991365;28;20026;-73
2021/09/20 00:53:39;;;;;;;6.78;3.47;;;14.90;93.40;;;;;;4992395;28;20045;-73
2021/09/20 00:56:06;;;;;;;4.47;2.75;;;14.90;93.40;;;;;;4991925;28;20507;-72
2021/09/20 00:58:31;;;;;;;5.35;2.45;;;14.90;93.40;;;;;;4992219;28;20031;-72
2021/09/20 01:01:00;;;;;;;6.78;2.58;;;14.90;93.40;;;;;;4992038;28;20034;-72
2021/09/20 01:03:26;;;;;;;5.03;2.33;;;14.80;93.40;;;;;;4992027;28;20046;-71
2021/09/20 01:05:52;;;;;;;5.68;2.33;;;14.80;93.30;;;;;;4992282;28;20018;-72
2021/09/20 01:08:18;;;;;;;6.28;2.80;;;14.80;93.30;;;;;;4991719;28;20050;-72
2021/09/20 01:10:43;;;;;;;5.55;2.53;;;14.90;93.40;;;;;;4991897;28;20444;-72
2021/09/20 01:13:10;;;;;;;6.85;2.45;;;14.90;93.30;;;;;;4991691;28;20479;-71
2021/09/20 01:15:35;;;;;;;3.47;2.15;;;14.90;93.40;;;;;;4991710;28;20150;-70
2021/09/20 01:18:01;;;;;;;3.22;2.28;;;14.80;93.40;;;;;;4991737;28;20117;-72
2021/09/20 01:20:27;;;;;;;5.90;2.83;;;14.90;93.30;;;;;;4992069;28;20042;-71
2021/09/20 01:23:01;;;;;;;5.50;2.50;;;14.90;93.40;;;;;;4991772;28;20022;-71
2021/09/20 01:25:28;;;;;;;4.70;2.80;;;14.90;93.30;;;;;;4991550;28;20500;-72
2021/09/20 01:27:53;;;;;;;4.57;2.63;;;14.90;93.30;;;;;;4990635;28;20049;-71
2021/09/20 01:30:20;;;;;;;3.85;2.40;;;14.80;93.30;;;;;;4991660;28;20042;-72
2021/09/20 01:32:46;;;;;;;5.28;2.50;;;14.80;93.50;;;;;;4992549;28;20405;-72
2021/09/20 01:35:13;;;;;;;6.93;2.50;;;14.80;93.50;;;;;;4992084;28;20019;-72
2021/09/20 01:37:39;;;;;;;4.90;2.10;;;14.80;93.40;;;;;;4976317;28;20106;-72
2021/09/20 01:40:05;;;;;;;4.43;2.53;;;14.80;93.30;;;;;;4975987;28;20480;-72
2021/09/20 01:42:31;;;;;;;3.60;2.42;;;14.80;93.30;;;;;;4976284;28;20057;-72
2021/09/20 01:44:57;;;;;;;3.90;2.13;;;14.80;93.40;;;;;;4976255;28;20035;-73
2021/09/20 01:47:23;;;;;;;3.45;2.28;;;14.80;93.30;;;;;;4976102;28;20457;-73
2021/09/20 01:49:48;;;;;;;4.25;2.15;;;14.80;93.40;;;;;;4975920;28;20039;-73
2021/09/20 01:52:14;;;;;;;3.95;2.25;;;14.70;93.30;;;;;;4975043;28;20035;-72
2021/09/20 01:54:40;;;;;;;4.28;1.95;;;14.70;93.70;;;;;;4975854;28;20140;-73
2021/09/20 01:57:05;;;;;;;3.17;2.10;;;14.70;93.40;;;;;;4975603;28;20458;-70
2021/09/20 01:59:31;;;;;;;3.15;2.13;;;14.70;93.30;;;;;;4976105;28;20622;-72
2021/09/20 02:01:57;;;;;;;5.95;2.33;;;14.60;93.40;;;;;;4975868;28;20473;-72
2021/09/20 02:04:22;;;;;;;4.82;2.13;;;14.60;93.40;;;;;;4975645;28;20035;-72
2021/09/20 02:06:48;;;;;;;4.15;2.20;;;14.60;93.40;;;;;;4975827;28;20701;-72
2021/09/20 02:09:14;;;;;;;5.05;1.95;;;14.60;93.30;;;;;;4975479;28;20369;-73
2021/09/20 02:11:40;;;;;;;3.65;2.00;;;14.60;93.30;;;;;;4976269;28;20093;-72
2021/09/20 02:14:06;;;;;;;5.43;2.35;;;14.60;93.30;;;;;;4975687;28;20054;-72
2021/09/20 02:16:32;;;;;;;3.53;2.20;;;14.60;93.40;;;;;;4975415;28;20046;-72
2021/09/20 02:18:58;;;;;;;3.35;1.80;;;14.60;93.40;;;;;;4975922;28;20034;-72
2021/09/20 02:21:23;;;;;;;5.40;2.30;;;14.60;93.40;;;;;;4975469;28;20047;-72
2021/09/20 02:23:49;;;;;;;4.45;2.22;;;14.60;93.40;;;;;;4976057;28;20031;-72
2021/09/20 02:26:15;;;;;;;7.93;2.15;;;14.50;93.40;;;;;;4975497;28;20031;-72
2021/09/20 02:28:40;;;;;;;5.95;2.80;;;14.50;93.40;;;;;;4975452;28;20035;-72
2021/09/20 02:31:08;;;;;;;6.43;2.55;;;14.50;93.40;;;;;;4975536;28;20134;-72
2021/09/20 02:33:35;;;;;;;5.57;2.22;;;14.50;93.40;;;;;;4975286;28;20042;-72
2021/09/20 02:36:02;;;;;;;6.63;2.15;;;14.60;93.40;;;;;;4975139;28;20121;-72
2021/09/20 02:38:28;;;;;;;3.33;2.30;;;14.60;93.50;;;;;;4974499;28;20334;-73
2021/09/20 02:40:54;;;;;;;5.75;2.50;;;14.60;93.50;;;;;;4975065;28;20035;-72
2021/09/20 02:43:20;;;;;;;5.15;2.40;;;14.50;93.60;;;;;;4974957;28;20122;-73
2021/09/20 02:45:46;;;;;;;2.55;2.03;;;14.60;93.60;;;;;;4972833;28;20146;-73
2021/09/20 02:48:11;;;;;;;5.75;2.13;;;14.50;93.60;;;;;;4974922;28;20033;-73
2021/09/20 02:50:37;;;;;;;5.00;1.92;;;14.60;93.70;;;;;;4975285;28;20026;-70
2021/09/20 02:53:04;;;;;;;8.02;1.90;;;14.60;93.70;;;;;;4974856;28;20102;-71
2021/09/20 02:55:30;;;;;;;4.23;2.30;;;14.50;93.70;;;;;;4975007;28;20027;-71
2021/09/20 02:57:55;;;;;;;5.88;2.78;;;14.50;93.80;;;;;;4974780;28;20699;-71
2021/09/20 03:00:21;;;;;;;9.70;3.33;;;14.50;94.10;;;;;;4974498;28;20030;-71
2021/09/20 03:02:46;;;;;;;3.63;2.22;;;14.50;93.80;;;;;;4974894;28;20035;-72
2021/09/20 03:05:12;;;;;;;6.72;2.53;;;14.50;93.90;;;;;;4973607;28;20031;-71
2021/09/20 03:07:37;;;;;;;4.95;2.30;;;14.50;93.90;;;;;;4974296;28;20035;-71
2021/09/20 03:10:03;;;;;;;5.32;3.05;;;14.50;94.00;;;;;;4974340;28;20437;-71
2021/09/20 03:12:29;;;;;;;3.70;2.40;;;14.50;94.10;;;;;;4974144;28;20035;-71
2021/09/20 03:14:54;;;;;;;4.38;2.47;;;14.50;93.90;;;;;;4974739;28;20461;-71
2021/09/20 03:17:20;;;;;;;7.32;2.10;;;14.50;94.00;;;;;;4974257;28;20051;-72
2021/09/20 03:19:46;;;;;;;4.65;2.10;;;14.50;93.90;;;;;;4974279;28;20370;-74
2021/09/20 03:22:12;;;;;;;7.25;2.65;;;14.50;94.00;;;;;;4974215;28;20030;-72
2021/09/20 03:24:38;;;;;;;5.55;2.20;;;14.50;94.00;;;;;;4974405;28;20035;-71
2021/09/20 03:27:05;;;;;;;4.03;2.40;;;14.50;94.10;;;;;;4974236;28;20045;-73
2021/09/20 03:29:31;;;;;;;4.45;2.20;;;14.40;94.10;;;;;;4974658;28;20122;-72
2021/09/20 03:31:56;;;;;;;5.05;2.50;;;14.50;94.00;;;;;;4974273;28;20114;-72
2021/09/20 03:34:22;;;;;;;4.50;1.95;;;14.40;94.10;;;;;;4974022;28;20031;-72
2021/09/20 03:36:47;;;;;;;5.63;2.22;;;14.40;94.20;;;;;;4974176;28;20459;-72
2021/09/20 03:39:13;;;;;;;3.60;2.00;;;14.40;94.20;;;;;;4973704;28;20027;-72
2021/09/20 03:41:39;;;;;;;5.55;2.17;;;14.40;94.10;;;;;;4974480;28;20645;-72
2021/09/20 03:44:04;;;;;;;5.28;2.22;;;14.40;94.10;;;;;;4973647;28;20031;-72
2021/09/20 03:46:30;;;;;;;4.45;2.10;;;14.40;94.10;;;;;;4973787;28;20118;-72
2021/09/20 03:48:56;;;;;;;4.03;2.00;;;14.40;94.10;;;;;;4973974;28;20465;-72
2021/09/20 03:51:21;;;;;;;4.10;2.17;;;14.40;94.20;;;;;;4973789;28;20315;-72
2021/09/20 03:53:47;;;;;;;5.90;2.10;;;14.40;94.30;;;;;;4973056;28;20049;-71
2021/09/20 03:56:13;;;;;;;5.13;2.47;;;14.40;94.20;;;;;;4972897;28;20038;-71
2021/09/20 03:58:38;;;;;;;3.22;2.03;;;14.40;94.30;;;;;;4973451;28;20140;-71
2021/09/20 04:01:04;;;;;;;4.57;1.98;;;14.40;94.20;;;;;;4973678;28;20110;-72
2021/09/20 04:03:30;;;;;;;5.85;2.53;;;14.40;94.20;;;;;;4972589;28;20035;-72
2021/09/20 04:05:56;;;;;;;5.60;1.90;;;14.40;94.20;;;;;;4972938;28;20027;-72
2021/09/20 04:08:27;;;;;;;4.35;2.55;;;14.40;94.20;;;;;;4973080;28;20481;-72
2021/09/20 04:10:53;;;;;;;4.18;2.08;;;14.40;94.20;;;;;;4973550;28;20110;-71
2021/09/20 04:13:19;;;;;;;3.70;1.98;;;14.30;94.20;;;;;;4973027;28;20035;-72
2021/09/20 04:15:45;;;;;;;4.65;2.70;;;14.30;94.30;;;;;;4973337;28;20597;-71
2021/09/20 04:18:10;;;;;;;4.07;2.33;;;14.30;94.40;;;;;;4973208;28;20373;-72
2021/09/20 04:20:36;;;;;;;6.30;2.15;;;14.30;94.30;;;;;;4973672;28;20102;-72
2021/09/20 04:23:01;;;;;;;4.63;1.88;;;14.30;94.30;;;;;;4973128;28;20047;-71
2021/09/20 04:25:27;;;;;;;3.60;2.05;;;14.30;94.30;;;;;;4972929;28;20119;-72
2021/09/20 04:27:53;;;;;;;5.65;2.45;;;14.30;94.30;;;;;;4973242;28;20056;-71
2021/09/20 04:30:18;;;;;;;3.10;1.85;;;14.30;94.30;;;;;;4971953;28;20023;-72
2021/09/20 04:32:44;;;;;;;6.57;2.00;;;14.30;94.30;;;;;;4973462;28;20027;-72
2021/09/20 04:35:10;;;;;;;5.80;2.00;;;14.30;94.30;;;;;;4973052;28;20027;-72
2021/09/20 04:37:37;;;;;;;4.72;2.10;;;14.30;94.30;;;;;;4972953;28;20098;-71
2021/09/20 04:40:04;;;;;;;9.02;2.50;;;14.40;94.30;;;;;;4973006;28;20039;-72
2021/09/20 04:42:30;;;;;;;3.83;1.75;;;14.30;94.30;;;;;;4973046;28;20055;-72
2021/09/20 04:44:56;;;;;;;7.18;2.38;;;14.20;94.30;;;;;;4973308;28;20488;-72
2021/09/20 04:47:21;;;;;;;3.35;1.63;;;14.20;94.20;;;;;;4972743;28;20358;-73
2021/09/20 04:49:47;;;;;;;4.35;2.35;;;14.20;94.30;;;;;;4972967;28;20047;-72
2021/09/20 04:52:13;;;;;;;8.95;2.35;;;14.20;94.30;;;;;;4971737;28;20106;-73
2021/09/20 04:54:38;;;;;;;7.50;2.03;;;14.20;94.40;;;;;;4972641;28;20034;-72
2021/09/20 04:57:04;;;;;;;4.57;2.70;;;14.20;94.40;;;;;;4972925;28;20037;-72
2021/09/20 04:59:29;;;;;;;2.90;1.95;;;14.20;94.30;;;;;;4973024;28;20023;-72
2021/09/20 05:01:55;;;;;;;5.60;2.33;;;14.20;94.30;;;;;;4972632;28;20039;-72
2021/09/20 05:04:21;;;;;;;3.42;2.08;;;14.20;94.30;;;;;;4971590;28;20079;-72
2021/09/20 05:06:46;;;;;;;4.90;2.22;;;14.20;94.40;;;;;;4972860;28;20026;-71
2021/09/20 05:09:12;;;;;;;6.05;2.40;;;14.20;94.40;;;;;;4971654;28;20035;-72
2021/09/20 05:11:38;;;;;;;7.88;2.83;;;14.20;94.40;;;;;;4972901;28;20052;-71
2021/09/20 05:14:04;;;;;;;6.63;2.20;;;14.20;94.40;;;;;;4972464;28;20386;-71
2021/09/20 05:16:30;;;;;;;45.50;4.38;;;14.20;94.40;;;;;;4971525;28;20300;-71
2021/09/20 05:18:55;;;;;;;40.53;4.80;;;14.20;94.50;;;;;;4972384;28;20189;-71
2021/09/20 05:21:21;;;;;;;8.80;2.15;;;14.20;94.30;;;;;;4971348;28;20117;-72
2021/09/20 05:23:47;;;;;;;5.13;2.55;;;14.20;94.20;;;;;;4972506;28;20058;-71
2021/09/20 05:26:13;;;;;;;4.82;2.80;;;14.20;94.20;;;;;;4972396;28;20031;-72
2021/09/20 05:28:39;;;;;;;8.75;2.20;;;14.20;94.10;;;;;;4972320;28;20034;-71
2021/09/20 05:31:05;;;;;;;6.07;2.65;;;14.30;94.30;;;;;;4972417;28;20116;-71
2021/09/20 05:33:34;;;;;;;3.13;1.92;;;14.20;94.10;;;;;;4972257;28;20043;-71
2021/09/20 05:36:02;;;;;;;4.15;2.13;;;14.20;93.90;;;;;;4972385;28;20026;-71
2021/09/20 05:38:27;;;;;;;5.05;2.17;;;14.30;93.90;;;;;;4972455;28;20030;-70
2021/09/20 05:40:53;;;;;;;6.00;2.38;;;14.30;93.70;;;;;;4972128;28;20027;-71
2021/09/20 05:43:19;;;;;;;10.70;2.45;;;14.30;93.60;;;;;;4972295;28;20027;-69
2021/09/20 05:45:44;;;;;;;3.72;1.70;;;14.30;93.60;;;;;;4972189;28;20042;-68
2021/09/20 05:48:10;;;;;;;4.53;2.20;;;14.30;93.60;;;;;;4972185;28;20680;-68
2021/09/20 05:50:36;;;;;;;7.78;2.00;;;14.20;93.60;;;;;;4972444;28;20049;-68
2021/09/20 05:53:01;;;;;;;4.75;2.40;;;14.30;93.50;;;;;;4972157;28;20057;-68
2021/09/20 05:55:27;;;;;;;5.78;2.95;;;14.30;93.60;;;;;;4971841;28;20110;-70
2021/09/20 05:57:53;;;;;;;3.75;2.50;;;14.30;93.50;;;;;;4971861;28;20041;-69
2021/09/20 06:00:19;;;;;;;7.43;2.20;;;14.30;93.40;;;;;;4971831;28;20062;-69
2021/09/20 06:02:44;;;;;;;4.75;2.42;;;14.30;93.30;;;;;;4972554;28;20039;-69
2021/09/20 06:05:13;;;;;;;4.55;2.47;;;14.30;93.30;;;;;;4971875;28;20472;-69
2021/09/20 06:07:38;;;;;;;6.53;2.90;;;14.30;93.30;;;;;;4971630;28;20069;-69
2021/09/20 06:10:05;;;;;;;5.75;2.10;;;14.40;93.30;;;;;;4971865;28;20062;-71
2021/09/20 06:12:31;;;;;;;9.60;2.15;;;14.30;93.20;;;;;;4971861;28;20043;-72
2021/09/20 06:14:57;;;;;;;6.15;2.00;;;14.40;93.10;;;;;;4972352;28;20031;-72
2021/09/20 06:17:22;;;;;;;6.47;1.88;;;14.30;93.10;;;;;;4970840;28;20489;-71
2021/09/20 06:19:48;;;;;;;3.13;1.60;;;14.30;92.90;;;;;;4973154;28;20473;-71
2021/09/20 06:22:14;;;;;;;8.25;2.15;;;14.30;93.00;;;;;;4975314;28;20516;-73
2021/09/20 06:24:40;;;;;;;3.47;2.00;;;14.40;93.10;;;;;;4975503;28;20098;-73
2021/09/20 06:27:06;;;;;;;6.93;2.05;;;14.30;92.90;;;;;;4975219;28;20027;-72
2021/09/20 06:29:31;;;;;;;7.07;1.98;;;14.40;92.90;;;;;;4975553;28;20141;-73
2021/09/20 06:31:58;;;;;;;4.22;2.20;;;14.40;92.90;;;;;;4975277;28;20038;-72
2021/09/20 06:34:24;;;;;;;8.73;2.55;;;14.40;92.90;;;;;;4975295;28;20118;-71
2021/09/20 06:36:49;;;;;;;6.40;1.70;;;14.40;92.50;;;;;;4975016;28;20502;-72
2021/09/20 06:39:15;;;;;;;7.97;2.50;;;14.40;92.80;;;;;;4975140;28;20018;-73
2021/09/20 06:41:40;;;;;;;4.35;1.88;;;14.40;92.80;;;;;;4975652;28;20303;-73
2021/09/20 06:44:06;;;;;;;9.75;2.10;;;14.50;92.60;;;;;;4974709;28;20035;-72
2021/09/20 06:46:35;;;;;;;5.90;1.92;;;14.50;92.50;;;;;;4975086;28;20031;-73
2021/09/20 06:49:02;;;;;;;5.28;1.80;;;14.50;92.30;;;;;;4974743;28;20642;-73
2021/09/20 06:51:28;;;;;;;7.07;2.13;;;14.50;92.20;;;;;;4974793;28;20047;-73
2021/09/20 06:53:55;;;;;;;11.57;2.20;;;14.60;92.50;;;;;;4975138;28;20125;-74
2021/09/20 06:56:21;;;;;;;4.72;1.77;;;14.60;92.20;;;;;;4974793;28;20436;-73
2021/09/20 06:58:46;;;;;;;4.45;1.88;;;14.70;92.20;;;;;;4974515;28;20035;-73
2021/09/20 07:01:12;;;;;;;2.70;1.60;;;14.60;92.00;;;;;;4974898;28;20417;-74
2021/09/20 07:03:37;;;;;;;3.47;1.55;;;14.60;92.00;;;;;;4974617;28;20035;-74
2021/09/20 07:06:03;;;;;;;5.00;1.75;;;14.70;92.20;;;;;;4974497;28;20417;-74
2021/09/20 07:08:29;;;;;;;6.70;2.20;;;14.70;92.20;;;;;;4974590;28;20125;-70
2021/09/20 07:10:55;;;;;;;4.07;1.85;;;14.70;92.20;;;;;;4974401;28;20031;-69
2021/09/20 07:13:20;;;;;;;5.15;1.83;;;14.70;92.30;;;;;;4974516;28;20035;-72
2021/09/20 07:15:46;;;;;;;8.77;2.03;;;14.70;92.40;;;;;;4974578;28;20110;-72
2021/09/20 07:18:12;;;;;;;8.15;2.30;;;14.70;92.50;;;;;;4974237;28;20126;-73
2021/09/20 07:20:37;;;;;;;4.35;1.70;;;14.70;92.60;;;;;;4973983;28;20034;-71
2021/09/20 07:23:03;;;;;;;4.40;2.38;;;14.70;92.60;;;;;;4974395;28;20055;-70
2021/09/20 07:25:29;;;;;;;9.07;2.60;;;14.70;92.70;;;;;;4974659;28;20408;-70
2021/09/20 07:27:55;;;;;;;5.57;2.47;;;14.70;92.70;;;;;;4973098;28;20035;-70
2021/09/20 07:30:20;;;;;;;6.53;1.85;;;14.80;92.80;;;;;;4974437;28;20093;-70
2021/09/20 07:32:49;;;;;;;4.57;1.92;;;14.80;92.80;;;;;;4972620;28;20027;-70
2021/09/20 07:35:16;;;;;;;8.30;3.90;;;14.80;92.80;;;;;;4974105;28;20033;-70
2021/09/20 07:37:47;;;;;;;6.20;2.35;;;14.80;92.90;;;;;;4973962;28;20507;-70
2021/09/20 07:40:13;;;;;;;8.20;1.98;;;14.80;92.90;;;;;;4974084;28;20035;-69
2021/09/20 07:42:40;;;;;;;9.07;2.08;;;14.80;92.90;;;;;;4972576;28;20493;-70
2021/09/20 07:45:08;;;;;;;5.88;2.50;;;14.80;93.00;;;;;;4973837;28;20027;-70
2021/09/20 07:47:34;;;;;;;7.32;2.30;;;14.80;93.00;;;;;;4974336;28;20098;-70
2021/09/20 07:50:00;;;;;;;6.53;2.53;;;14.90;92.90;;;;;;4973808;28;20174;-73
2021/09/20 07:52:25;;;;;;;6.40;2.33;;;14.90;92.90;;;;;;4973909;28;20470;-72
2021/09/20 07:54:52;;;;;;;5.20;2.28;;;14.90;92.90;;;;;;4973667;28;20089;-73
2021/09/20 07:57:18;;;;;;;5.75;1.92;;;14.90;93.00;;;;;;4973832;28;20437;-73
2021/09/20 07:59:45;;;;;;;11.68;2.45;;;14.90;92.80;;;;;;4973870;28;20472;-73
2021/09/20 08:02:11;;;;;;;8.73;2.40;;;14.90;92.80;;;;;;4973593;28;20521;-73
2021/09/20 08:04:36;;;;;;;12.68;2.40;;;14.90;92.80;;;;;;4973275;28;20122;-73
2021/09/20 08:07:03;;;;;;;4.32;2.35;;;14.90;92.80;;;;;;4973471;28;20093;-74
2021/09/20 08:09:28;;;;;;;9.82;2.47;;;14.90;92.90;;;;;;4973357;28;20126;-72
2021/09/20 08:11:54;;;;;;;6.35;2.47;;;15.00;92.90;;;;;;4973813;28;20101;-74
2021/09/20 08:14:20;;;;;;;4.95;2.13;;;15.00;92.80;;;;;;4973283;28;20046;-73
2021/09/20 08:16:45;;;;;;;8.57;2.20;;;15.00;92.90;;;;;;4973416;28;20043;-72
2021/09/20 08:19:11;;;;;;;3.50;1.70;;;15.00;92.80;;;;;;4973120;28;20053;-73
2021/09/20 08:21:37;;;;;;;5.80;2.50;;;15.10;92.80;;;;;;4972082;28;20058;-72
2021/09/20 08:24:02;;;;;;;3.95;2.08;;;15.00;92.70;;;;;;4973023;28;20046;-72
2021/09/20 08:26:28;;;;;;;13.18;2.67;;;15.10;92.80;;;;;;4973567;28;20327;-72
2021/09/20 08:28:55;;;;;;;6.85;2.85;;;15.10;92.80;;;;;;4972869;28;20031;-73
2021/09/20 08:31:20;;;;;;;7.20;3.22;;;15.10;93.00;;;;;;4972850;28;20030;-73
2021/09/20 08:33:46;;;;;;;6.20;2.22;;;15.20;92.80;;;;;;4972954;28;20034;-72
2021/09/20 08:36:11;;;;;;;9.57;2.05;;;15.20;92.60;;;;;;4973000;28;20022;-69
2021/09/20 08:38:37;;;;;;;7.70;1.92;;;15.30;92.60;;;;;;4973227;28;20023;-69
2021/09/20 08:41:03;;;;;;;2.63;1.52;;;15.30;92.50;;;;;;4972793;28;20031;-71
2021/09/20 08:43:32;;;;;;;5.20;1.90;;;15.30;92.30;;;;;;4972797;28;20369;-72
2021/09/20 08:46:05;;;;;;;13.43;4.18;;;15.30;92.30;;;;;;4972568;28;20041;-72
2021/09/20 08:48:37;;;;;;;4.03;2.28;;;15.40;92.40;;;;;;4972644;28;20485;-74
2021/09/20 08:51:02;;;;;;;7.38;2.20;;;15.50;92.30;;;;;;4972611;28;20033;-73
2021/09/20 08:53:28;;;;;;;4.38;1.83;;;15.50;92.10;;;;;;4973047;28;20109;-72
2021/09/20 08:55:54;;;;;;;4.03;1.63;;;15.50;92.00;;;;;;4972663;28;20597;-71
2021/09/20 08:58:19;;;;;;;2.92;1.88;;;15.60;91.80;;;;;;4972530;28;20082;-72
2021/09/20 09:00:45;;;;;;;3.33;1.75;;;15.50;91.70;;;;;;4972548;28;20117;-73
2021/09/20 09:03:11;;;;;;;7.25;1.60;;;15.50;91.60;;;;;;4972077;28;20034;-74
2021/09/20 09:05:37;;;;;;;10.82;4.50;;;15.60;91.70;;;;;;4972835;28;20042;-73
2021/09/20 09:08:05;;;;;;;3.75;2.47;;;15.50;91.40;;;;;;4972294;28;20047;-74
2021/09/20 09:10:40;;;;;;;7.03;2.38;;;15.60;91.70;;;;;;4971477;28;20358;-73
2021/09/20 09:13:07;;;;;;;4.18;1.65;;;15.70;91.90;;;;;;4972303;28;20509;-74
2021/09/20 09:15:35;;;;;;;6.63;1.70;;;15.70;91.80;;;;;;4972495;28;20031;-73
2021/09/20 09:18:02;;;;;;;4.45;1.90;;;15.80;91.80;;;;;;4972301;28;20054;-74
2021/09/20 09:20:31;;;;;;;3.25;1.80;;;15.80;91.60;;;;;;4972848;28;20400;-74
2021/09/20 09:23:00;;;;;;;3.10;1.70;;;15.80;91.60;;;;;;4972228;28;20027;-73
2021/09/20 09:25:25;;;;;;;3.05;1.63;;;15.90;91.10;;;;;;4972422;28;20043;-74
2021/09/20 09:27:54;;;;;;;5.80;1.83;;;16.00;91.10;;;;;;4972089;28;20054;-73
2021/09/20 09:30:26;;;;;;;3.97;1.98;;;16.00;90.80;;;;;;4972159;28;20041;-73
2021/09/20 09:33:12;;;;;;;6.85;2.13;;;16.10;90.30;;;;;;4972572;28;20038;-74
2021/09/20 09:35:42;;;;;;;4.03;1.70;;;16.10;90.10;;;;;;4971839;28;20042;-73
2021/09/20 09:38:09;;;;;;;4.60;2.40;;;16.10;90.00;;;;;;4972070;28;20039;-71
2021/09/20 09:40:50;;;;;;;3.60;1.60;;;16.20;90.00;;;;;;4971077;28;20038;-71
2021/09/20 09:43:25;;;;;;;17.40;8.95;;;16.10;89.70;;;;;;4971187;28;20268;-74
2021/09/20 09:45:51;;;;;;;13.98;3.75;;;16.20;89.60;;;;;;4972140;28;20042;-73
2021/09/20 09:48:19;;;;;;;4.18;1.88;;;16.30;89.90;;;;;;4970982;28;20030;-73
2021/09/20 09:50:46;;;;;;;2.40;1.60;;;16.30;87.40;;;;;;4972577;28;20102;-76
2021/09/20 09:53:32;;;;;;;7.07;1.63;;;16.40;87.10;;;;;;4971313;28;20388;-76
2021/09/20 09:56:01;;;;;;;3.17;1.40;;;16.50;87.90;;;;;;4975131;28;20332;-73
2021/09/20 09:58:27;;;;;;;6.35;2.03;;;16.60;87.90;;;;;;4974722;28;20031;-74
2021/09/20 10:01:15;;;;;;;4.22;1.70;;;16.70;86.60;;;;;;4975686;28;20050;-73
2021/09/20 10:04:04;;;;;;;13.07;5.97;;;16.80;85.60;;;;;;4975598;28;20043;-73
2021/09/20 10:06:40;;;;;;;21.80;3.53;;;17.00;85.10;;;;;;4975528;28;20469;-74
2021/09/20 10:09:06;;;;;;;9.82;1.70;;;17.10;84.50;;;;;;4974179;28;20393;-74
2021/09/20 10:11:34;;;;;;;6.20;2.20;;;17.20;84.80;;;;;;4976013;28;20034;-73
2021/09/20 10:14:00;;;;;;;3.40;1.65;;;17.40;84.10;;;;;;4975540;28;20031;-75
2021/09/20 10:16:26;;;;;;;5.70;1.98;;;17.40;82.70;;;;;;4975595;28;20027;-73
2021/09/20 10:18:54;;;;;;;4.72;1.95;;;17.40;82.50;;;;;;4975434;28;20109;-74
2021/09/20 10:21:20;;;;;;;5.00;2.00;;;17.70;81.70;;;;;;4974405;28;20437;-74
2021/09/20 10:23:47;;;;;;;6.97;2.50;;;17.90;82.30;;;;;;4975702;28;20094;-74
2021/09/20 10:26:13;;;;;;;5.80;1.83;;;18.10;80.70;;;;;;4975464;28;20034;-74
2021/09/20 10:28:39;;;;;;;6.88;1.70;;;18.20;80.20;;;;;;4975488;28;20428;-74
2021/09/20 10:31:04;;;;;;;5.05;1.58;;;18.30;79.40;;;;;;4975168;28;20454;-74
2021/09/20 10:33:30;;;;;;;2.50;1.33;;;18.30;79.70;;;;;;4974062;28;20062;-75
2021/09/20 10:35:55;;;;;;;2.60;1.20;;;18.20;80.10;;;;;;4974601;28;20457;-74
2021/09/20 10:38:21;;;;;;;4.50;1.38;;;18.30;79.90;;;;;;4974182;28;20410;-75
2021/09/20 10:41:07;;;;;;;5.60;1.50;;;18.20;79.40;;;;;;4975137;28;20237;-70
2021/09/20 10:43:35;;;;;;;5.78;1.45;;;18.00;78.60;;;;;;4974810;28;20133;-70
2021/09/20 10:46:02;;;;;;;5.72;2.03;;;18.00;80.60;;;;;;4975066;28;20232;-70
2021/09/20 10:48:55;;;;;;;4.85;2.00;;;18.00;79.10;;;;;;4974481;28;20031;-74
2021/09/20 10:51:23;;;;;;;3.03;1.42;;;18.00;78.40;;;;;;4973833;28;20035;-70
2021/09/20 10:54:11;;;;;;;5.55;1.60;;;17.90;77.50;;;;;;4974506;28;20361;-70
2021/09/20 10:56:38;;;;;;;4.13;1.77;;;17.90;78.30;;;;;;4973650;28;20050;-70
2021/09/20 10:59:05;;;;;;;5.22;1.70;;;17.90;77.50;;;;;;4973481;28;20051;-70
2021/09/20 11:01:32;;;;;;;2.38;1.55;;;17.90;77.40;;;;;;4974239;28;20019;-70
2021/09/20 11:04:01;;;;;;;2.70;1.30;;;18.00;78.00;;;;;;4974642;28;20138;-70
2021/09/20 11:06:38;;;;;;;2.05;1.35;;;17.90;78.40;;;;;;4973425;28;20043;-70
2021/09/20 11:09:06;;;;;;;2.33;1.50;;;18.00;78.10;;;;;;4974388;28;20438;-71
2021/09/20 11:11:41;;;;;;;6.25;1.80;;;18.10;77.20;;;;;;4974012;28;20062;-72
2021/09/20 11:14:37;;;;;;;3.67;1.50;;;18.10;77.00;;;;;;4974217;28;20042;-73
2021/09/20 11:17:26;;;;;;;2.15;1.42;;;18.10;76.50;;;;;;4974477;28;20031;-71
2021/09/20 11:20:00;;;;;;;1.75;1.10;;;17.90;76.00;;;;;;4974386;28;20042;-71
2021/09/20 11:22:29;;;;;;;3.67;1.58;;;17.90;76.80;;;;;;4974487;28;20523;-71
2021/09/20 11:25:12;;;;;;;2.90;1.40;;;17.70;75.50;;;;;;4974244;28;20050;-72
2021/09/20 11:27:43;;;;;;;2.55;1.30;;;17.70;73.90;;;;;;4974158;28;20039;-71
2021/09/20 11:30:16;;;;;;;5.18;1.77;;;17.60;73.30;;;;;;4973019;28;20165;-71
2021/09/20 11:32:57;;;;;;;2.75;1.35;;;17.70;74.00;;;;;;4974929;28;20030;-72
2021/09/20 11:35:29;;;;;;;3.03;1.55;;;17.70;74.80;;;;;;4974058;28;20046;-71
2021/09/20 11:37:58;;;;;;;6.95;1.90;;;17.80;75.40;;;;;;4974203;28;20027;-74
2021/09/20 11:40:27;;;;;;;6.82;2.42;;;17.90;74.70;;;;;;4973958;28;20050;-73
2021/09/20 11:42:55;;;;;;;7.53;1.58;;;18.00;75.00;;;;;;4974248;28;20031;-73
2021/09/20 11:45:24;;;;;;;3.58;1.73;;;18.20;74.20;;;;;;4974159;28;20031;-73
2021/09/20 11:47:56;;;;;;;3.80;1.40;;;18.20;73.50;;;;;;4974591;28;20058;-73
2021/09/20 11:50:27;;;;;;;3.03;1.35;;;18.30;73.90;;;;;;4973703;28;20070;-72
2021/09/20 11:53:02;;;;;;;3.35;1.48;;;18.20;73.20;;;;;;4973928;28;20042;-73
2021/09/20 11:55:39;;;;;;;4.50;1.52;;;18.00;73.00;;;;;;4973668;28;20027;-71
2021/09/20 11:58:10;;;;;;;5.00;1.57;;;18.00;74.00;;;;;;4973711;28;20039;-72
2021/09/20 12:00:39;;;;;;;4.97;1.73;;;17.90;73.90;;;;;;4973641;28;20046;-74
2021/09/20 12:03:08;;;;;;;5.07;1.80;;;17.90;74.40;;;;;;4973597;28;20037;-74
2021/09/20 12:05:36;;;;;;;10.88;1.85;;;17.80;74.80;;;;;;4974227;28;20093;-73
2021/09/20 12:08:05;;;;;;;3.10;1.58;;;17.80;74.80;;;;;;4973646;28;20432;-74
2021/09/20 12:10:54;;;;;;;2.50;1.50;;;17.70;74.90;;;;;;4973715;28;20125;-72
2021/09/20 12:13:31;;;;;;;2.35;1.60;;;17.80;75.50;;;;;;4973638;28;20027;-74
2021/09/20 12:16:04;;;;;;;4.30;1.60;;;17.70;75.70;;;;;;4973604;28;20042;-73
2021/09/20 12:18:30;;;;;;;3.97;1.90;;;17.70;76.50;;;;;;4973433;28;20044;-74
2021/09/20 12:21:05;;;;;;;3.28;1.73;;;17.70;76.80;;;;;;4974352;28;20720;-74
2021/09/20 12:23:32;;;;;;;2.85;1.50;;;17.80;76.30;;;;;;4973424;28;20043;-73
2021/09/20 12:26:07;;;;;;;3.95;1.60;;;17.80;75.90;;;;;;4973097;28;20057;-74
2021/09/20 12:28:41;;;;;;;4.70;1.85;;;17.80;76.80;;;;;;4973288;28;20469;-75
2021/09/20 12:31:13;;;;;;;4.85;2.20;;;17.90;75.50;;;;;;4973093;28;20054;-71
2021/09/20 12:33:51;;;;;;;3.40;2.30;;;17.90;76.00;;;;;;4973148;28;20031;-71
2021/09/20 12:36:34;;;;;;;4.82;1.65;;;17.90;75.60;;;;;;4972066;28;20058;-73
2021/09/20 12:39:19;;;;;;;4.20;1.90;;;18.00;74.80;;;;;;4972131;28;20038;-69
2021/09/20 12:41:46;;;;;;;4.88;2.60;;;18.10;76.10;;;;;;4973190;28;20023;-69
2021/09/20 12:44:26;;;;;;;13.38;2.03;;;18.10;76.20;;;;;;4972761;28;20476;-70
2021/09/20 12:46:59;;;;;;;48.88;4.85;;;18.20;76.60;;;;;;4972795;28;20472;-69